createdAt,value
2023-08-15T00:01:51.684Z,1.50
2023-08-15T00:04:18.254Z,1.70
2023-08-15T00:06:44.852Z,2.10
2023-08-15T00:09:11.570Z,1.63
2023-08-15T00:11:38.157Z,1.73
2023-08-15T00:14:04.786Z,1.75
2023-08-15T00:16:31.445Z,1.77
2023-08-15T00:18:58.029Z,1.63
2023-08-15T00:21:25.403Z,1.92
2023-08-15T00:23:52.238Z,1.90
2023-08-15T00:26:18.840Z,1.73
2023-08-15T00:28:45.491Z,1.60
2023-08-15T00:31:12.160Z,1.70
2023-08-15T00:33:39.494Z,1.90
2023-08-15T00:36:06.453Z,1.90
2023-08-15T00:38:33.029Z,1.70
2023-08-15T00:40:59.615Z,1.77
2023-08-15T00:43:26.215Z,1.77
2023-08-15T00:45:53.557Z,1.70
2023-08-15T00:48:21.368Z,1.90
2023-08-15T00:50:50.821Z,1.80
2023-08-15T00:53:19.311Z,1.80
2023-08-15T00:55:46.609Z,1.63
2023-08-15T00:58:13.381Z,1.80
2023-08-15T01:00:40.021Z,1.58
2023-08-15T01:03:06.669Z,1.60
2023-08-15T01:05:33.349Z,1.90
2023-08-15T01:08:00.241Z,1.50
2023-08-15T01:10:27.536Z,1.50
2023-08-15T01:13:23.617Z,1.92
2023-08-15T01:15:52.213Z,1.42
2023-08-15T01:18:29.996Z,1.52
2023-08-15T01:20:57.816Z,1.48
2023-08-15T01:23:54.051Z,1.30
2023-08-15T01:26:20.652Z,1.40
2023-08-15T01:28:47.223Z,1.52
2023-08-15T01:31:30.732Z,1.50
2023-08-15T01:34:02.252Z,1.35
2023-08-15T01:36:34.689Z,1.60
2023-08-15T01:39:04.214Z,1.53
2023-08-15T01:41:34.329Z,1.58
2023-08-15T01:44:01.892Z,1.65
2023-08-15T01:46:28.545Z,1.50
2023-08-15T01:48:55.243Z,1.48
2023-08-15T01:51:21.826Z,1.50
2023-08-15T01:53:48.543Z,1.40
2023-08-15T01:56:15.149Z,1.42
2023-08-15T01:58:41.803Z,1.42
2023-08-15T02:01:08.458Z,1.45
2023-08-15T02:03:35.065Z,1.42
2023-08-15T02:06:01.679Z,1.63
2023-08-15T02:08:28.323Z,1.40
2023-08-15T02:10:55.058Z,1.42
2023-08-15T02:13:21.717Z,1.55
2023-08-15T02:15:48.443Z,1.45
2023-08-15T02:18:15.038Z,1.23
2023-08-15T02:20:41.614Z,1.60
2023-08-15T02:23:08.303Z,1.30
2023-08-15T02:25:34.887Z,1.50
2023-08-15T02:28:01.521Z,1.67
2023-08-15T02:30:28.172Z,1.55
2023-08-15T02:32:54.981Z,1.35
2023-08-15T02:35:21.631Z,1.42
2023-08-15T02:37:48.287Z,1.50
2023-08-15T02:40:14.960Z,1.60
2023-08-15T02:42:41.569Z,1.20
2023-08-15T02:45:08.797Z,1.42
2023-08-15T02:47:35.506Z,1.48
2023-08-15T02:50:02.184Z,1.70
2023-08-15T02:52:28.768Z,1.60
2023-08-15T02:54:55.363Z,1.45
2023-08-15T02:57:22.320Z,1.52
2023-08-15T02:59:49.090Z,1.52
2023-08-15T03:02:18.628Z,1.23
2023-08-15T03:04:45.260Z,1.30
2023-08-15T03:07:11.839Z,1.67
2023-08-15T03:09:38.493Z,1.63
2023-08-15T03:12:05.285Z,1.40
2023-08-15T03:14:31.916Z,1.40
2023-08-15T03:16:58.588Z,1.52
2023-08-15T03:19:25.305Z,1.40
2023-08-15T03:21:53.602Z,1.30
2023-08-15T03:24:20.207Z,1.45
2023-08-15T03:26:46.881Z,1.40
2023-08-15T03:29:13.574Z,1.27
2023-08-15T03:31:40.204Z,1.38
2023-08-15T03:34:07.657Z,1.40
2023-08-15T03:36:34.294Z,1.20
2023-08-15T03:39:00.979Z,1.35
2023-08-15T03:41:27.553Z,1.60
2023-08-15T03:43:54.218Z,1.27
2023-08-15T03:46:22.481Z,1.35
2023-08-15T03:48:49.167Z,1.15
2023-08-15T03:51:27.411Z,1.30
2023-08-15T03:54:02.320Z,1.40
2023-08-15T03:56:28.938Z,1.50
2023-08-15T03:58:55.605Z,1.25
2023-08-15T04:01:22.194Z,1.30
2023-08-15T04:03:50.969Z,1.35
2023-08-15T04:06:17.609Z,1.30
2023-08-15T04:08:44.390Z,1.42
2023-08-15T04:11:10.979Z,1.33
2023-08-15T04:13:37.590Z,1.30
2023-08-15T04:16:04.214Z,1.58
2023-08-15T04:18:31.102Z,1.00
2023-08-15T04:20:57.709Z,1.20
2023-08-15T04:23:25.068Z,1.30
2023-08-15T04:25:51.706Z,1.30
2023-08-15T04:28:18.755Z,1.23
2023-08-15T04:30:46.077Z,1.30
2023-08-15T04:33:12.746Z,1.30
2023-08-15T04:35:40.700Z,1.20
2023-08-15T04:38:07.401Z,1.05
2023-08-15T04:40:44.978Z,1.65
2023-08-15T04:43:12.159Z,1.20
2023-08-15T04:45:42.230Z,1.40
2023-08-15T04:48:10.096Z,1.30
2023-08-15T04:50:37.181Z,1.10
2023-08-15T04:53:03.998Z,1.30
2023-08-15T04:55:30.617Z,1.30
2023-08-15T04:57:57.240Z,1.20
2023-08-15T05:00:23.826Z,1.20
2023-08-15T05:02:50.610Z,1.27
2023-08-15T05:05:17.354Z,1.20
2023-08-15T05:07:44.064Z,1.40
2023-08-15T05:10:10.839Z,1.40
2023-08-15T05:12:37.431Z,1.35
2023-08-15T05:15:04.425Z,1.30
2023-08-15T05:17:32.198Z,1.40
2023-08-15T05:19:59.120Z,1.25
2023-08-15T05:22:26.011Z,1.40
2023-08-15T05:24:52.708Z,1.48
2023-08-15T05:27:19.604Z,1.40
2023-08-15T05:29:46.461Z,1.30
2023-08-15T05:32:13.683Z,1.45
2023-08-15T05:34:40.327Z,1.63
2023-08-15T05:37:06.897Z,1.30
2023-08-15T05:39:33.529Z,1.40
2023-08-15T05:42:00.141Z,1.30
2023-08-15T05:44:27.705Z,1.50
2023-08-15T05:46:54.443Z,1.20
2023-08-15T05:49:21.049Z,1.40
2023-08-15T05:51:47.635Z,1.55
2023-08-15T05:54:14.224Z,1.40
2023-08-15T05:56:41.548Z,1.67
2023-08-15T05:59:08.243Z,1.48
2023-08-15T06:01:34.836Z,1.58
2023-08-15T06:04:02.242Z,1.42
2023-08-15T06:06:29.024Z,1.25
2023-08-15T06:08:56.619Z,1.27
2023-08-15T06:11:23.278Z,1.45
2023-08-15T06:13:51.141Z,1.30
2023-08-15T06:16:19.787Z,1.50
2023-08-15T06:18:46.422Z,1.50
2023-08-15T06:21:13.135Z,1.40
2023-08-15T06:23:39.759Z,1.42
2023-08-15T06:26:06.364Z,1.33
2023-08-15T06:28:32.982Z,1.30
2023-08-15T06:30:59.631Z,1.40
2023-08-15T06:33:26.300Z,1.80
2023-08-15T06:35:53.746Z,1.30
2023-08-15T06:38:20.355Z,1.20
2023-08-15T06:40:46.960Z,1.40
2023-08-15T06:43:13.564Z,1.50
2023-08-15T06:45:40.159Z,1.58
2023-08-15T06:48:07.186Z,1.30
2023-08-15T06:50:34.145Z,1.60
2023-08-15T06:53:00.998Z,1.45
2023-08-15T06:55:27.608Z,1.65
2023-08-15T06:57:54.809Z,1.45
2023-08-15T07:00:21.606Z,1.90
2023-08-15T07:02:48.356Z,2.00
2023-08-15T07:05:15.204Z,2.30
2023-08-15T07:07:41.930Z,2.55
2023-08-15T07:10:09.028Z,1.98
2023-08-15T07:12:38.556Z,2.20
2023-08-15T07:15:05.691Z,1.90
2023-08-15T07:17:32.687Z,2.45
2023-08-15T07:19:59.483Z,2.20
2023-08-15T07:22:26.145Z,1.77
2023-08-15T07:24:52.791Z,2.30
2023-08-15T07:27:19.406Z,2.20
2023-08-15T07:29:46.069Z,2.30
2023-08-15T07:32:13.826Z,2.40
2023-08-15T07:34:40.817Z,2.67
2023-08-15T07:37:07.522Z,2.35
2023-08-15T07:39:34.175Z,2.33
2023-08-15T07:42:01.114Z,2.35
2023-08-15T07:44:28.870Z,1.90
2023-08-15T07:46:55.556Z,2.10
2023-08-15T07:49:22.187Z,2.00
2023-08-15T07:51:49.002Z,1.98
2023-08-15T07:54:15.664Z,1.70
2023-08-15T07:56:42.359Z,1.90
2023-08-15T07:59:08.970Z,2.00
2023-08-15T08:01:35.690Z,2.47
2023-08-15T08:04:02.638Z,1.90
2023-08-15T08:08:59.303Z,1.92
2023-08-15T08:11:25.886Z,2.17
2023-08-15T08:13:52.465Z,1.70
2023-08-15T08:16:19.414Z,1.77
2023-08-15T08:18:46.795Z,1.35
2023-08-15T08:21:13.461Z,1.80
2023-08-15T08:23:40.126Z,2.08
2023-08-15T08:26:06.731Z,1.67
2023-08-15T08:28:33.327Z,1.90
2023-08-15T08:30:59.994Z,1.80
2023-08-15T08:33:26.800Z,1.83
2023-08-15T08:35:53.392Z,1.65
2023-08-15T08:38:20.901Z,1.45
2023-08-15T08:40:48.689Z,2.03
2023-08-15T08:43:16.946Z,1.58
2023-08-15T08:45:48.679Z,1.55
2023-08-15T08:48:16.592Z,1.60
2023-08-15T08:50:43.298Z,1.70
2023-08-15T08:53:09.905Z,1.52
2023-08-15T08:55:36.567Z,1.40
2023-08-15T08:58:03.961Z,1.88
2023-08-15T09:00:35.124Z,1.33
2023-08-15T09:03:01.947Z,1.63
2023-08-15T09:05:28.968Z,1.52
2023-08-15T09:07:55.817Z,1.30
2023-08-15T09:10:23.196Z,1.40
2023-08-15T09:12:50.909Z,1.48
2023-08-15T09:15:17.522Z,1.20
2023-08-15T09:17:44.249Z,1.50
2023-08-15T09:20:15.161Z,1.52
2023-08-15T09:22:46.409Z,0.95
2023-08-15T09:25:16.216Z,1.30
2023-08-15T09:27:43.531Z,1.30
2023-08-15T09:30:12.574Z,1.20
2023-08-15T09:32:41.328Z,1.27
2023-08-15T09:35:13.291Z,1.50
2023-08-15T09:37:44.850Z,1.08
2023-08-15T09:40:26.540Z,1.40
2023-08-15T09:42:53.668Z,1.30
2023-08-15T09:45:20.436Z,1.50
2023-08-15T09:47:47.640Z,1.50
2023-08-15T09:50:15.172Z,1.40
2023-08-15T09:52:44.184Z,1.20
2023-08-15T09:55:15.622Z,1.15
2023-08-15T09:57:46.865Z,1.25
2023-08-15T10:00:14.587Z,1.20
2023-08-15T10:02:50.232Z,1.33
2023-08-15T10:05:22.563Z,1.15
2023-08-15T10:07:51.137Z,1.40
2023-08-15T10:10:18.390Z,1.40
2023-08-15T10:12:46.749Z,1.50
2023-08-15T10:15:14.157Z,1.50
2023-08-15T10:17:41.524Z,1.20
2023-08-15T10:20:11.956Z,1.30
2023-08-15T10:22:41.182Z,1.50
2023-08-15T10:25:29.380Z,1.30
2023-08-15T10:27:57.022Z,1.17
2023-08-15T10:30:51.515Z,1.20
2023-08-15T10:33:21.129Z,1.23
2023-08-15T10:35:56.795Z,1.30
2023-08-15T10:38:27.330Z,1.13
2023-08-15T10:40:56.455Z,1.02
2023-08-15T10:43:26.907Z,1.30
2023-08-15T10:45:57.905Z,1.10
2023-08-15T10:48:55.854Z,1.13
2023-08-15T10:51:34.239Z,1.20
2023-08-15T10:54:02.125Z,1.30
2023-08-15T10:56:31.656Z,1.00
2023-08-15T10:58:59.371Z,0.98
2023-08-15T11:01:28.021Z,1.35
2023-08-15T11:03:56.423Z,1.00
2023-08-15T11:06:23.249Z,1.35
2023-08-15T11:08:59.923Z,1.10
2023-08-15T11:11:27.567Z,1.00
2023-08-15T11:13:55.081Z,1.30
2023-08-15T11:16:23.430Z,1.10
2023-08-15T11:18:50.637Z,1.20
2023-08-15T11:21:19.052Z,1.08
2023-08-15T11:23:47.820Z,0.95
2023-08-15T11:26:19.652Z,0.90
2023-08-15T11:28:46.355Z,1.05
2023-08-15T11:33:44.299Z,1.00
2023-08-15T11:36:11.360Z,1.00
2023-08-15T11:38:39.406Z,0.80
2023-08-15T11:41:06.363Z,1.00
2023-08-15T11:43:35.710Z,1.05
2023-08-15T11:46:03.581Z,1.17
2023-08-15T11:48:31.844Z,1.10
2023-08-15T11:50:58.922Z,1.00
2023-08-15T11:53:25.768Z,0.98
2023-08-15T11:55:53.301Z,1.00
2023-08-15T11:58:33.074Z,1.17
2023-08-15T12:01:13.018Z,0.90
2023-08-15T12:03:40.193Z,1.05
2023-08-15T12:06:08.964Z,1.05
2023-08-15T12:08:35.642Z,0.90
2023-08-15T12:11:06.929Z,0.98
2023-08-15T12:13:34.392Z,1.25
2023-08-15T12:16:02.158Z,0.90
2023-08-15T12:18:29.848Z,1.15
2023-08-15T12:20:56.467Z,1.00
2023-08-15T12:23:28.785Z,0.98
2023-08-15T12:25:56.240Z,0.95
2023-08-15T12:28:23.206Z,0.90
2023-08-15T12:30:50.009Z,1.10
2023-08-15T12:33:27.607Z,1.10
2023-08-15T12:36:03.379Z,1.08
2023-08-15T12:38:30.310Z,0.80
2023-08-15T12:40:57.155Z,1.20
2023-08-15T12:43:23.780Z,0.82
2023-08-15T12:45:50.548Z,1.00
2023-08-15T12:48:17.251Z,1.00
2023-08-15T12:50:43.881Z,0.95
2023-08-15T12:53:10.562Z,0.90
2023-08-15T12:55:37.297Z,1.00
2023-08-15T12:58:04.314Z,0.90
2023-08-15T13:00:31.251Z,1.25
2023-08-15T13:02:59.101Z,0.90
2023-08-15T13:05:25.950Z,1.08
2023-08-15T13:07:52.785Z,0.88
2023-08-15T13:10:19.366Z,0.65
2023-08-15T13:12:45.996Z,1.10
2023-08-15T13:15:13.748Z,0.75
2023-08-15T13:17:40.392Z,1.08
2023-08-15T13:20:07.817Z,1.05
2023-08-15T13:22:36.338Z,0.90
2023-08-15T13:25:02.970Z,0.85
2023-08-15T13:27:30.732Z,1.17
2023-08-15T13:29:57.682Z,1.00
2023-08-15T13:32:24.594Z,1.10
2023-08-15T13:34:51.409Z,0.88
2023-08-15T13:37:18.041Z,1.20
2023-08-15T13:39:45.002Z,0.93
2023-08-15T13:42:19.978Z,0.90
2023-08-15T13:44:53.694Z,0.80
2023-08-15T13:47:21.164Z,0.90
2023-08-15T13:49:48.054Z,1.10
2023-08-15T13:52:14.675Z,1.00
2023-08-15T13:54:41.270Z,1.23
2023-08-15T13:57:07.947Z,0.85
2023-08-15T13:59:34.536Z,1.00
2023-08-15T14:02:01.207Z,0.98
2023-08-15T14:04:29.229Z,1.00
2023-08-15T14:06:59.878Z,1.33
2023-08-15T14:09:26.509Z,1.02
2023-08-15T14:11:53.130Z,0.93
2023-08-15T14:14:19.726Z,1.17
2023-08-15T14:16:46.536Z,1.00
2023-08-15T14:19:13.684Z,0.90
2023-08-15T14:21:40.283Z,0.90
2023-08-15T14:24:07.089Z,0.90
2023-08-15T14:26:34.062Z,0.73
2023-08-15T14:29:00.706Z,0.93
2023-08-15T14:31:27.750Z,0.88
2023-08-15T14:33:54.357Z,1.00
2023-08-15T14:36:20.974Z,1.00
2023-08-15T14:38:47.877Z,1.20
2023-08-15T14:41:14.495Z,1.15
2023-08-15T14:43:41.089Z,1.10
2023-08-15T14:46:07.688Z,0.90
2023-08-15T14:48:34.321Z,0.90
2023-08-15T14:51:00.904Z,1.10
2023-08-15T14:53:27.599Z,1.08
2023-08-15T14:55:54.203Z,1.10
2023-08-15T14:58:21.296Z,1.35
2023-08-15T15:00:48.055Z,1.38
2023-08-15T15:03:14.829Z,1.30
2023-08-15T15:05:41.483Z,1.63
2023-08-15T15:08:08.646Z,1.50
2023-08-15T15:10:36.297Z,1.05
2023-08-15T15:13:03.536Z,1.23
2023-08-15T15:15:45.847Z,1.58
2023-08-15T15:18:17.402Z,1.50
2023-08-15T15:20:44.074Z,1.30
2023-08-15T15:23:10.756Z,1.50
2023-08-15T15:25:37.364Z,1.42
2023-08-15T15:28:04.149Z,1.25
2023-08-15T15:30:31.100Z,1.27
2023-08-15T15:32:57.960Z,1.25
2023-08-15T15:35:24.620Z,1.30
2023-08-15T15:37:51.195Z,1.35
2023-08-15T15:40:17.828Z,1.17
2023-08-15T15:42:44.445Z,1.10
2023-08-15T15:45:11.173Z,1.30
2023-08-15T15:47:37.802Z,1.30
2023-08-15T15:50:04.532Z,1.05
2023-08-15T15:52:31.346Z,1.20
2023-08-15T15:54:58.040Z,1.10
2023-08-15T15:57:24.674Z,1.20
2023-08-15T15:59:51.272Z,1.20
2023-08-15T16:02:18.091Z,0.98
2023-08-15T16:04:47.660Z,1.10
2023-08-15T16:07:16.654Z,1.10
2023-08-15T16:09:43.354Z,1.00
2023-08-15T16:12:09.958Z,1.08
2023-08-15T16:14:36.558Z,0.88
2023-08-15T16:17:04.592Z,0.90
2023-08-15T16:19:31.214Z,0.90
2023-08-15T16:21:57.825Z,0.95
2023-08-15T16:24:26.977Z,1.23
2023-08-15T16:26:53.653Z,0.88
2023-08-15T16:29:20.276Z,0.80
2023-08-15T16:31:46.945Z,1.10
2023-08-15T16:34:13.541Z,0.80
2023-08-15T16:36:40.171Z,1.00
2023-08-15T16:39:07.592Z,0.80
2023-08-15T16:41:34.234Z,1.17
2023-08-15T16:44:00.881Z,0.80
2023-08-15T16:46:27.567Z,0.93
2023-08-15T16:48:54.216Z,0.80
2023-08-15T16:51:21.106Z,0.90
2023-08-15T16:53:47.809Z,0.90
2023-08-15T16:56:14.404Z,0.80
2023-08-15T16:58:41.037Z,1.10
2023-08-15T17:01:07.642Z,0.80
2023-08-15T17:03:34.332Z,0.88
2023-08-15T17:06:01.046Z,1.02
2023-08-15T17:08:27.949Z,0.98
2023-08-15T17:10:54.546Z,0.85
2023-08-15T17:13:21.168Z,1.05
2023-08-15T17:15:47.827Z,0.80
2023-08-15T17:18:14.532Z,0.98
2023-08-15T17:20:41.132Z,0.90
2023-08-15T17:23:08.550Z,0.90
2023-08-15T17:25:36.270Z,0.60
2023-08-15T17:28:03.001Z,1.00
2023-08-15T17:30:29.614Z,0.88
2023-08-15T17:32:56.266Z,1.00
2023-08-15T17:35:22.895Z,0.80
2023-08-15T17:37:49.495Z,1.08
2023-08-15T17:40:16.146Z,1.10
2023-08-15T17:42:44.169Z,0.95
2023-08-15T17:45:12.891Z,0.90
2023-08-15T17:47:39.567Z,0.80
2023-08-15T17:50:07.135Z,1.00
2023-08-15T17:52:36.535Z,1.02
2023-08-15T17:55:05.147Z,0.80
2023-08-15T17:57:31.982Z,0.77
2023-08-15T17:59:58.630Z,0.98
2023-08-15T18:02:25.428Z,1.00
2023-08-15T18:04:52.385Z,0.90
2023-08-15T18:07:20.161Z,1.00
2023-08-15T18:09:46.746Z,0.70
2023-08-15T18:12:13.370Z,1.20
2023-08-15T18:14:42.092Z,0.93
2023-08-15T18:17:08.677Z,0.85
2023-08-15T18:19:35.308Z,1.10
2023-08-15T18:22:02.143Z,0.80
2023-08-15T18:24:29.586Z,1.13
2023-08-15T18:26:59.433Z,0.95
2023-08-15T18:29:27.416Z,0.80
2023-08-15T18:31:54.109Z,0.95
2023-08-15T18:34:20.731Z,1.00
2023-08-15T18:36:47.324Z,0.70
2023-08-15T18:39:13.908Z,0.88
2023-08-15T18:41:40.482Z,0.88
2023-08-15T18:44:11.215Z,0.93
2023-08-15T18:46:38.274Z,0.75
2023-08-15T18:49:04.895Z,0.68
2023-08-15T18:51:32.820Z,0.80
2023-08-15T18:54:00.003Z,0.95
2023-08-15T18:56:26.609Z,0.60
2023-08-15T18:58:53.190Z,0.80
2023-08-15T19:01:19.946Z,0.70
2023-08-15T19:03:46.682Z,0.95
2023-08-15T19:06:13.365Z,0.90
2023-08-15T19:08:40.006Z,0.77
2023-08-15T19:11:07.186Z,0.80
2023-08-15T19:13:33.776Z,0.60
2023-08-15T19:16:00.406Z,1.05
2023-08-15T19:18:27.676Z,0.95
2023-08-15T19:20:54.354Z,1.00
2023-08-15T19:23:21.096Z,0.88
2023-08-15T19:25:48.135Z,0.70
2023-08-15T19:28:16.444Z,1.00
2023-08-15T19:30:43.850Z,0.88
2023-08-15T19:33:10.884Z,0.73
2023-08-15T19:35:37.645Z,0.85
2023-08-15T19:38:04.348Z,0.60
2023-08-15T19:40:30.957Z,0.73
2023-08-15T19:42:57.573Z,0.90
2023-08-15T19:45:24.204Z,1.00
2023-08-15T19:47:50.854Z,0.73
2023-08-15T19:50:18.247Z,0.68
2023-08-15T19:52:44.845Z,0.95
2023-08-15T19:55:11.798Z,0.70
2023-08-15T19:57:38.935Z,0.90
2023-08-15T20:00:07.906Z,0.60
2023-08-15T20:02:34.558Z,0.60
2023-08-15T20:05:01.254Z,0.77
2023-08-15T20:07:27.929Z,0.80
2023-08-15T20:10:08.346Z,0.70
2023-08-15T20:12:37.246Z,0.63
2023-08-15T20:15:04.412Z,0.80
2023-08-15T20:17:31.091Z,0.88
2023-08-15T20:19:57.793Z,0.88
2023-08-15T20:22:24.822Z,0.88
2023-08-15T20:24:51.743Z,0.80
2023-08-15T20:27:18.412Z,0.80
2023-08-15T20:29:45.194Z,0.75
2023-08-15T20:32:13.403Z,0.68
2023-08-15T20:34:40.040Z,0.63
2023-08-15T20:37:06.766Z,0.65
2023-08-15T20:39:33.357Z,0.82
2023-08-15T20:42:00.346Z,0.70
2023-08-15T20:44:28.280Z,0.68
2023-08-15T20:46:56.123Z,0.70
2023-08-15T20:49:22.887Z,0.60
2023-08-15T20:51:49.476Z,0.70
2023-08-15T20:54:16.216Z,0.80
2023-08-15T20:56:43.292Z,0.70
2023-08-15T20:59:09.928Z,0.70
2023-08-15T21:01:36.509Z,0.60
2023-08-15T21:04:03.318Z,0.60
2023-08-15T21:06:30.001Z,0.70
2023-08-15T21:08:58.287Z,0.70
2023-08-15T21:11:24.900Z,0.70
2023-08-15T21:13:51.492Z,0.60
2023-08-15T21:16:18.204Z,0.80
2023-08-15T21:18:44.812Z,0.63
2023-08-15T21:21:11.441Z,0.80
2023-08-15T21:23:39.647Z,0.57
2023-08-15T21:26:06.230Z,0.80
2023-08-15T21:28:32.900Z,0.50
2023-08-15T21:30:59.535Z,0.75
2023-08-15T21:33:26.186Z,0.63
2023-08-15T21:35:52.804Z,0.80
2023-08-15T21:38:20.047Z,0.70
2023-08-15T21:40:47.545Z,0.65
2023-08-15T21:43:14.243Z,0.75
2023-08-15T21:45:41.138Z,0.75
2023-08-15T21:48:08.342Z,0.60
2023-08-15T21:50:35.821Z,0.57
2023-08-15T21:53:02.590Z,0.57
2023-08-15T21:55:29.206Z,0.88
2023-08-15T21:57:55.800Z,0.80
2023-08-15T22:00:22.443Z,0.73
2023-08-15T22:02:49.288Z,0.73
2023-08-15T22:05:16.050Z,0.70
2023-08-15T22:07:42.684Z,0.80
2023-08-15T22:10:09.504Z,0.73
2023-08-15T22:12:36.121Z,0.70
2023-08-15T22:15:02.809Z,0.60
2023-08-15T22:17:43.066Z,0.65
2023-08-15T22:20:13.048Z,0.68
2023-08-15T22:22:42.217Z,0.60
2023-08-15T22:25:09.237Z,0.70
2023-08-15T22:27:35.844Z,0.60
2023-08-15T22:30:02.858Z,0.70
2023-08-15T22:32:29.917Z,0.52
2023-08-15T22:34:58.133Z,0.70
2023-08-15T22:37:24.984Z,0.70
2023-08-15T22:39:51.858Z,0.63
2023-08-15T22:42:18.659Z,0.90
2023-08-15T22:44:45.247Z,0.70
2023-08-15T22:47:11.889Z,0.80
2023-08-15T22:49:38.647Z,0.73
2023-08-15T22:52:05.240Z,0.70
2023-08-15T22:54:32.992Z,0.55
2023-08-15T22:56:59.575Z,0.60
2023-08-15T22:59:26.364Z,0.70
2023-08-15T23:01:52.935Z,0.80
2023-08-15T23:04:19.583Z,0.68
2023-08-15T23:06:46.248Z,0.55
2023-08-15T23:09:13.778Z,0.80
2023-08-15T23:11:43.438Z,0.60
2023-08-15T23:14:10.019Z,0.63
2023-08-15T23:16:36.627Z,0.88
2023-08-15T23:19:03.205Z,0.50
2023-08-15T23:21:29.836Z,0.70
2023-08-15T23:23:57.517Z,0.50
2023-08-15T23:26:24.192Z,0.65
2023-08-15T23:28:50.796Z,0.80
2023-08-15T23:31:18.638Z,0.95
2023-08-15T23:33:46.394Z,0.70
2023-08-15T23:36:13.446Z,0.60
2023-08-15T23:38:40.151Z,0.60
2023-08-15T23:41:06.782Z,0.52
2023-08-15T23:43:33.348Z,0.68
2023-08-15T23:46:00.003Z,0.60
2023-08-15T23:48:26.586Z,0.60
2023-08-15T23:50:53.178Z,0.52
2023-08-15T23:53:19.767Z,0.60
2023-08-15T23:55:46.340Z,0.70
2023-08-15T23:58:12.969Z,0.60
